Terminal Aerodrome Forecast
Issued by NWS Columbia, SC

Home | Current Version | Previous Version | Text Only | Print | Product List | Glossary On
Versions: 1 2 3 4 5 6 7 8 9 10 11 12 13 14 15 16 17 18 19 20 21 22 23 24 25 26 27 28
153
FTUS42 KCAE 222336
TAFCAE
TAF
KCAE 222336Z 2300/2324 11007KT P6SM SCT060 OVC250
     FM230300 15010KT P6SM VCSH OVC015 WS010/19040KT
      TEMPO 2305/2309 4SM -SHRA BR BKN008
     FM230900 20011G17KT P6SM BKN008 OVC025
     FM231200 23012G17KT P6SM OVC015
     FM231500 27014G24KT P6SM SCT015=

USA.gov is the U.S. government's official web portal to all federal, state and local government web resources and services.